Time;durP1;ratioP1;P1;durP2;ratioP2;P2;SDS_P1;SDS_P2;PMS_P1;PMS_P2;Temp;Humidity;BMP_temperature;BMP_pressure;BME280_temperature;BME280_humidity;BME280_pressure;Samples;Min_cycle;Max_cycle;Signal;HPM_P1;HPM_P2
2021/06/23 00:01:50;;;;;;;8.53;6.13;;;;;;;16.95;100.00;99110.75;10256674;29;20186;-85
2021/06/23 00:07:09;;;;;;;14.53;4.97;;;;;;;16.91;100.00;99116.41;10259238;29;20261;-85
2021/06/23 00:12:30;;;;;;;13.10;6.77;;;;;;;16.98;100.00;99116.22;10258197;29;20191;-84
2021/06/23 00:17:49;;;;;;;6.43;5.10;;;;;;;17.07;100.00;99119.13;10217963;29;20195;-85
2021/06/23 00:23:08;;;;;;;23.67;5.27;;;;;;;17.05;100.00;99123.56;10218821;29;20223;-85
2021/06/23 00:28:27;;;;;;;6.77;5.20;;;;;;;16.99;100.00;99133.69;10250945;29;20685;-84
2021/06/23 00:33:49;;;;;;;7.00;4.57;;;;;;;16.98;100.00;99132.13;10258075;29;20183;-85
2021/06/23 00:39:08;;;;;;;4.20;3.90;;;;;;;16.91;100.00;99126.75;10256389;29;20178;-85
2021/06/23 00:44:29;;;;;;;14.83;4.87;;;;;;;16.94;100.00;99137.78;10241944;28;20264;-84
2021/06/23 00:49:48;;;;;;;4.70;4.30;;;;;;;16.90;100.00;99141.88;10214978;29;20175;-85
2021/06/23 00:55:08;;;;;;;9.50;5.80;;;;;;;16.88;100.00;99142.28;10232331;29;20724;-85
2021/06/23 01:00:34;;;;;;;5.73;5.20;;;;;;;16.88;100.00;99125.63;10255094;29;20249;-84
2021/06/23 01:05:54;;;;;;;5.47;4.87;;;;;;;16.82;100.00;99137.72;10231361;29;20269;-85
2021/06/23 01:11:13;;;;;;;8.97;4.90;;;;;;;16.78;100.00;99146.16;10216297;29;20188;-85
2021/06/23 01:16:38;;;;;;;3.53;3.23;;;;;;;16.66;100.00;99148.09;10214546;29;20191;-85
2021/06/23 01:21:57;;;;;;;8.53;3.70;;;;;;;16.64;100.00;99161.66;10215720;29;20266;-85
2021/06/23 01:27:16;;;;;;;4.80;4.00;;;;;;;16.60;100.00;99172.06;10215708;29;20176;-85
2021/06/23 01:32:36;;;;;;;5.37;4.40;;;;;;;16.56;100.00;99185.28;10235016;29;20705;-85
2021/06/23 01:37:55;;;;;;;8.80;4.60;;;;;;;16.60;100.00;99183.97;10254370;29;20182;-85
2021/06/23 01:43:14;;;;;;;4.80;3.47;;;;;;;16.57;100.00;99190.41;10226836;29;20663;-85
2021/06/23 01:48:33;;;;;;;3.50;3.30;;;;;;;16.41;100.00;99184.88;10214029;29;20183;-85
2021/06/23 01:53:52;;;;;;;6.20;4.87;;;;;;;16.38;100.00;99193.28;10246679;28;20649;-85
2021/06/23 01:59:11;;;;;;;5.40;4.00;;;;;;;16.45;100.00;99198.66;10254931;29;20253;-85
2021/06/23 02:04:49;;;;;;;4.47;4.03;;;;;;;16.47;100.00;99191.44;10214187;29;20727;-85
2021/06/23 02:10:14;;;;;;;5.40;4.90;;;;;;;16.45;100.00;99182.00;10216163;29;20535;-85
2021/06/23 02:15:34;;;;;;;6.77;4.30;;;;;;;16.45;100.00;99180.00;10252529;29;20174;-85
2021/06/23 02:20:58;;;;;;;6.83;4.50;;;;;;;16.56;100.00;99191.63;10244343;29;20183;-85
2021/06/23 02:26:18;;;;;;;6.87;4.33;;;;;;;16.41;100.00;99184.88;10213177;29;20215;-85
2021/06/23 02:31:39;;;;;;;5.67;4.07;;;;;;;16.48;100.00;99195.00;10224201;29;20214;-84
2021/06/23 02:37:02;;;;;;;4.20;3.90;;;;;;;16.45;100.00;99187.56;10251827;29;20176;-86
2021/06/23 02:42:22;;;;;;;4.17;3.87;;;;;;;16.36;100.00;99173.50;10234230;29;20223;-85
2021/06/23 02:47:42;;;;;;;6.20;4.37;;;;;;;16.33;100.00;99166.03;10211216;29;20255;-85
2021/06/23 02:53:03;;;;;;;6.63;4.23;;;;;;;16.31;100.00;99147.03;10239342;29;20630;-84
2021/06/23 02:58:22;;;;;;;4.73;4.23;;;;;;;16.26;100.00;99132.88;10253360;29;20198;-85
2021/06/23 03:03:43;;;;;;;5.40;4.90;;;;;;;16.38;100.00;99157.97;10220936;29;20219;-85
2021/06/23 03:09:03;;;;;;;6.60;5.60;;;;;;;16.23;100.00;99145.63;10220282;29;20635;-85
2021/06/23 03:14:22;;;;;;;5.50;4.67;;;;;;;16.10;100.00;99139.22;10253812;29;20190;-84
2021/06/23 03:19:41;;;;;;;9.60;5.73;;;;;;;16.10;100.00;99135.66;10258221;29;20207;-85
2021/06/23 03:25:01;;;;;;;7.43;5.20;;;;;;;16.01;100.00;99146.59;10219897;29;20211;-85
2021/06/23 03:30:22;;;;;;;5.93;5.33;;;;;;;16.05;100.00;99147.28;10221428;29;20722;-85
2021/06/23 03:35:41;;;;;;;5.43;4.50;;;;;;;16.08;100.00;99158.31;10259303;29;20646;-85
2021/06/23 03:41:00;;;;;;;19.10;5.50;;;;;;;16.00;100.00;99164.44;10252019;29;20254;-85
2021/06/23 03:46:18;;;;;;;5.73;5.07;;;;;;;15.94;100.00;99166.19;10216365;29;20306;-85
2021/06/23 03:51:37;;;;;;;6.30;5.70;;;;;;;16.05;100.00;99180.59;10230366;29;20187;-85
2021/06/23 03:56:56;;;;;;;6.93;5.17;;;;;;;16.02;100.00;99198.09;10258435;29;20203;-85
2021/06/23 04:02:15;;;;;;;9.80;6.00;;;;;;;15.79;100.00;99189.94;10240762;29;20195;-85
2021/06/23 04:07:34;;;;;;;8.53;6.00;;;;;;;15.76;100.00;99179.69;10217503;29;20634;-84
2021/06/23 04:12:53;;;;;;;7.40;6.60;;;;;;;15.76;100.00;99181.69;10239407;29;20194;-84
2021/06/23 04:18:12;;;;;;;10.20;7.37;;;;;;;15.79;100.00;99194.72;10256798;28;20569;-83
2021/06/23 04:23:31;;;;;;;12.40;7.50;;;;;;;15.91;100.00;99207.88;10231667;29;20662;-83
2021/06/23 04:28:50;;;;;;;18.73;7.93;;;;;;;16.13;100.00;99202.19;10217179;29;20227;-83
2021/06/23 04:34:09;;;;;;;9.63;6.83;;;;;;;16.36;100.00;99215.16;10247140;29;20723;-83
2021/06/23 04:39:28;;;;;;;7.27;6.53;;;;;;;16.50;100.00;99217.56;10257232;29;20175;-83
2021/06/23 04:44:47;;;;;;;7.23;6.50;;;;;;;16.66;100.00;99229.47;10222004;29;20247;-83
2021/06/23 04:50:08;;;;;;;8.53;7.03;;;;;;;16.81;100.00;99225.84;10216379;29;20183;-83
2021/06/23 04:55:27;;;;;;;8.33;6.47;;;;;;;16.93;100.00;99216.81;10227199;29;20607;-83
2021/06/23 05:00:46;;;;;;;7.13;6.20;;;;;;;17.14;100.00;99212.66;10214863;29;20539;-83
2021/06/23 05:06:05;;;;;;;7.10;6.33;;;;;;;17.37;100.00;99212.44;10238157;29;20297;-83
2021/06/23 05:11:25;;;;;;;8.23;6.60;;;;;;;17.50;100.00;99213.22;10255709;29;20175;-84
2021/06/23 05:16:50;;;;;;;9.67;7.37;;;;;;;17.65;100.00;99210.38;10226786;29;20241;-84
2021/06/23 05:22:11;;;;;;;10.67;7.60;;;;;;;17.79;100.00;99211.94;10214501;29;20581;-84
2021/06/23 05:27:30;;;;;;;22.30;8.07;;;;;;;18.07;100.00;99197.91;10222479;29;20647;-83
2021/06/23 05:32:53;;;;;;;9.57;7.80;;;;;;;18.38;100.00;99187.00;10212905;29;20219;-82
2021/06/23 05:38:12;;;;;;;9.20;7.53;;;;;;;18.61;100.00;99201.34;10252712;29;20194;-83
2021/06/23 05:43:31;;;;;;;11.87;9.00;;;;;;;18.82;100.00;99209.72;10252737;29;20214;-83
2021/06/23 05:48:50;;;;;;;10.60;7.97;;;;;;;18.88;100.00;99209.94;10212713;29;20184;-84
2021/06/23 05:54:09;;;;;;;13.07;9.20;;;;;;;18.62;100.00;99223.19;10220510;29;20696;-83
2021/06/23 05:59:30;;;;;;;12.60;7.37;;;;;;;18.65;100.00;99216.72;10254293;29;20190;-83
2021/06/23 06:04:49;;;;;;;9.77;8.20;;;;;;;18.70;100.00;99220.91;10241238;29;20210;-83
2021/06/23 06:10:10;;;;;;;10.40;8.03;;;;;;;18.79;100.00;99232.94;10214330;29;20191;-83
2021/06/23 06:15:29;;;;;;;10.70;8.33;;;;;;;18.80;100.00;99237.28;10229075;29;20178;-83
2021/06/23 06:20:48;;;;;;;12.43;8.63;;;;;;;18.89;100.00;99248.53;10252599;29;20183;-84
2021/06/23 06:26:07;;;;;;;13.17;9.50;;;;;;;19.10;100.00;99247.81;10231920;29;20227;-84
2021/06/23 06:31:26;;;;;;;13.97;8.70;;;;;;;19.34;100.00;99248.94;10212215;29;20218;-84
2021/06/23 06:36:45;;;;;;;13.77;9.50;;;;;;;19.34;100.00;99243.34;10237957;29;20190;-84
2021/06/23 06:42:05;;;;;;;13.50;9.60;;;;;;;19.66;100.00;99251.34;10256958;28;20640;-84
2021/06/23 06:47:24;;;;;;;12.43;8.60;;;;;;;20.15;100.00;99258.63;10228276;29;20638;-84
2021/06/23 06:52:43;;;;;;;12.03;9.47;;;;;;;20.55;100.00;99257.38;10221331;29;20207;-83
2021/06/23 06:58:11;;;;;;;9.23;8.30;;;;;;;20.88;100.00;99269.59;10255173;29;20198;-84
2021/06/23 07:03:31;;;;;;;11.93;7.77;;;;;;;21.64;100.00;99275.88;10282242;29;20578;-80
2021/06/23 07:08:50;;;;;;;16.17;7.97;;;;;;;21.92;100.00;99278.91;10239268;29;20217;-80
2021/06/23 07:14:09;;;;;;;10.70;8.07;;;;;;;21.95;100.00;99297.59;10232103;29;20187;-80
2021/06/23 07:19:28;;;;;;;13.27;9.47;;;;;;;21.96;100.00;99299.16;10260280;29;20183;-80
2021/06/23 07:24:47;;;;;;;13.20;8.90;;;;;;;22.44;100.00;99305.72;10251970;29;20214;-80
2021/06/23 07:30:07;;;;;;;12.13;8.17;;;;;;;22.47;100.00;99310.41;10221039;29;20310;-81
2021/06/23 07:41:06;;;;;;;8.60;7.60;;;;;;;23.64;96.04;99314.03;10259317;29;20175;-80
2021/06/23 07:46:26;;;;;;;12.60;7.93;;;;;;;23.70;92.80;99314.94;10235047;29;20223;-81
2021/06/23 08:13:37;;;;;;;12.57;9.00;;;;;;;23.53;88.46;99325.81;10258780;29;20175;-82
2021/06/23 08:18:58;;;;;;;13.87;9.80;;;;;;;24.67;87.66;99312.34;10217178;29;20655;-81
2021/06/23 08:24:16;;;;;;;12.83;9.03;;;;;;;25.81;65.68;99315.94;10219840;29;20241;-81
2021/06/23 08:29:36;;;;;;;12.20;8.50;;;;;;;25.75;64.93;99310.72;10256852;29;20765;-82
2021/06/23 08:34:55;;;;;;;15.07;8.73;;;;;;;25.68;65.62;99317.59;10247267;29;20195;-81
2021/06/23 08:40:15;;;;;;;23.23;10.10;;;;;;;25.27;64.55;99318.88;10220925;29;20270;-81
2021/06/23 08:45:34;;;;;;;14.50;9.83;;;;;;;25.16;65.83;99301.81;10215739;29;20563;-81
2021/06/23 08:50:53;;;;;;;18.87;9.63;;;;;;;25.22;68.04;99302.66;10233102;29;20186;-81
2021/06/23 08:56:57;;;;;;;18.00;9.77;;;;;;;25.86;65.19;99291.91;10256759;29;20202;-81
2021/06/23 09:02:16;;;;;;;15.80;9.33;;;;;;;25.80;63.81;99293.91;10216781;29;20278;-81
2021/06/23 09:07:38;;;;;;;12.80;9.03;;;;;;;25.37;65.42;99294.91;10216253;29;20187;-84
2021/06/23 09:13:01;;;;;;;11.60;9.10;;;;;;;25.37;64.59;99296.97;10225277;29;20191;-84
2021/06/23 09:18:20;;;;;;;12.00;9.53;;;;;;;25.42;65.84;99293.44;10217710;29;20183;-84
2021/06/23 09:23:49;;;;;;;19.70;10.90;;;;;;;25.71;65.10;99299.66;10250225;29;20218;-84
2021/06/23 09:29:18;;;;;;;13.97;9.30;;;;;;;25.69;66.34;99302.19;10246416;29;20594;-83
2021/06/23 09:34:42;;;;;;;13.70;9.50;;;;;;;25.79;64.00;99305.69;10253626;29;20183;-83
2021/06/23 09:40:19;;;;;;;12.30;9.23;;;;;;;26.65;61.94;99302.91;10226113;29;20176;-83
2021/06/23 09:45:38;;;;;;;13.90;9.47;;;;;;;26.60;61.17;99299.28;10213168;29;20314;-83
2021/06/23 09:51:13;;;;;;;10.77;8.83;;;;;;;27.35;59.91;99283.31;10215435;29;20179;-83
2021/06/23 09:56:40;;;;;;;11.30;9.63;;;;;;;28.59;54.98;99284.84;10214574;29;20698;-85
2021/06/23 10:01:59;;;;;;;10.47;9.27;;;;;;;28.48;55.27;99290.53;10217342;29;20187;-83
2021/06/23 10:07:44;;;;;;;12.10;9.30;;;;;;;28.31;53.08;99292.59;10252976;29;20194;-83
2021/06/23 10:13:03;;;;;;;10.50;8.67;;;;;;;28.47;55.57;99288.22;10235025;29;20191;-84
2021/06/23 10:18:22;;;;;;;9.60;8.50;;;;;;;28.60;54.65;99292.06;10211689;29;20218;-84
2021/06/23 10:23:41;;;;;;;13.77;9.40;;;;;;;28.07;54.86;99291.50;10215165;29;20203;-83
2021/06/23 10:29:02;;;;;;;9.47;7.33;;;;;;;28.32;56.03;99285.66;10251537;29;20583;-83
2021/06/23 10:34:24;;;;;;;8.70;7.77;;;;;;;29.53;52.29;99271.25;10232068;29;20179;-84
2021/06/23 10:39:45;;;;;;;8.70;7.80;;;;;;;29.91;53.80;99276.72;10212471;29;20191;-83
2021/06/23 10:45:06;;;;;;;9.00;7.30;;;;;;;30.50;51.51;99269.06;10237182;29;20210;-83
2021/06/23 10:50:35;;;;;;;8.67;7.43;;;;;;;31.04;49.38;99278.38;10251917;29;20179;-83
2021/06/23 10:55:54;;;;;;;11.10;7.90;;;;;;;30.75;48.21;99278.38;10228147;29;20574;-83
2021/06/23 11:01:14;;;;;;;8.07;7.00;;;;;;;31.98;44.52;99267.34;10226452;29;20175;-83
2021/06/23 11:06:45;;;;;;;9.13;6.53;;;;;;;31.99;45.65;99275.31;10212368;29;20207;-83
2021/06/23 11:12:04;;;;;;;8.00;7.20;;;;;;;32.10;42.93;99255.25;10212989;29;20577;-83
2021/06/23 11:17:32;;;;;;;7.90;6.70;;;;;;;31.40;43.43;99257.75;10218997;29;20180;-83
2021/06/23 11:22:56;;;;;;;8.07;6.57;;;;;;;31.44;44.57;99255.41;10255735;28;20207;-83
2021/06/23 11:28:15;;;;;;;7.43;6.73;;;;;;;30.43;46.80;99261.09;10248903;28;20183;-83
2021/06/23 11:33:37;;;;;;;7.23;6.30;;;;;;;30.68;45.30;99262.72;10253696;28;20193;-83
2021/06/23 11:38:56;;;;;;;7.60;6.80;;;;;;;30.41;46.93;99254.44;10237593;29;20191;-83
2021/06/23 11:44:15;;;;;;;7.67;6.77;;;;;;;29.46;47.91;99246.28;10223958;29;20211;-81
2021/06/23 11:49:35;;;;;;;8.03;7.33;;;;;;;31.18;46.59;99254.44;10256029;29;20190;-81
2021/06/23 11:54:55;;;;;;;7.13;6.47;;;;;;;32.36;42.33;99255.38;10272333;29;20202;-81
2021/06/23 12:00:14;;;;;;;7.10;6.40;;;;;;;33.27;39.73;99259.13;10241227;29;20542;-82
2021/06/23 12:05:35;;;;;;;7.40;5.53;;;;;;;34.27;37.49;99250.66;10234448;29;20207;-82
2021/06/23 12:10:54;;;;;;;6.40;5.80;;;;;;;34.85;37.04;99253.88;10256523;29;20189;-85
2021/06/23 12:16:13;;;;;;;5.77;5.27;;;;;;;34.42;36.11;99250.81;10260335;29;20170;-83
2021/06/23 12:21:32;;;;;;;5.97;5.47;;;;;;;35.13;34.51;99251.81;10271557;29;20281;-83
2021/06/23 12:26:52;;;;;;;4.63;4.33;;;;;;;34.79;35.39;99261.84;10282252;29;20581;-83
2021/06/23 12:32:11;;;;;;;9.47;5.23;;;;;;;33.76;36.53;99258.09;10233854;29;20222;-83
2021/06/23 12:37:30;;;;;;;6.00;5.50;;;;;;;31.90;42.25;99255.81;10226415;29;20637;-83
2021/06/23 12:42:49;;;;;;;6.63;6.03;;;;;;;33.14;41.05;99244.09;10274684;29;20206;-82
2021/06/23 12:48:08;;;;;;;6.50;5.90;;;;;;;34.06;38.64;99227.06;10272095;29;20653;-82
2021/06/23 12:53:27;;;;;;;5.30;4.87;;;;;;;34.05;36.23;99227.59;10261795;29;20194;-81
2021/06/23 12:58:49;;;;;;;4.23;3.93;;;;;;;33.85;37.98;99234.03;10244958;29;20187;-82
2021/06/23 13:04:08;;;;;;;4.30;4.00;;;;;;;33.99;38.14;99230.56;10217178;29;20206;-82
2021/06/23 13:09:28;;;;;;;5.60;5.20;;;;;;;33.72;38.16;99225.50;10235203;29;20808;-82
2021/06/23 13:14:46;;;;;;;5.23;4.90;;;;;;;33.67;37.56;99218.59;10256640;29;20555;-81
2021/06/23 13:20:06;;;;;;;5.57;5.10;;;;;;;34.00;37.97;99203.56;10230719;29;20215;-82
2021/06/23 13:25:25;;;;;;;6.40;5.80;;;;;;;32.75;39.76;99207.03;10216904;29;20206;-81
2021/06/23 13:30:44;;;;;;;9.50;6.23;;;;;;;32.63;39.57;99206.47;10247077;29;20309;-82
2021/06/23 13:36:04;;;;;;;6.40;5.80;;;;;;;32.20;41.33;99221.44;10256384;29;20539;-81
2021/06/23 13:41:23;;;;;;;6.07;5.57;;;;;;;32.00;42.51;99228.47;10223323;29;20216;-81
2021/06/23 13:46:42;;;;;;;5.43;4.93;;;;;;;31.94;41.55;99205.03;10213926;29;20681;-81
2021/06/23 13:52:01;;;;;;;6.97;6.37;;;;;;;31.17;44.76;99213.09;10230324;28;20215;-81
2021/06/23 13:57:20;;;;;;;6.87;6.23;;;;;;;30.61;45.32;99212.19;10214998;29;20187;-82
2021/06/23 14:02:39;;;;;;;5.97;5.47;;;;;;;30.39;44.83;99212.34;10250576;29;20203;-82
2021/06/23 14:08:00;;;;;;;6.63;5.83;;;;;;;30.02;46.57;99203.66;10253892;29;20186;-82
2021/06/23 14:13:20;;;;;;;7.93;7.13;;;;;;;29.80;47.22;99205.84;10216686;29;20254;-84
2021/06/23 14:18:39;;;;;;;7.37;6.50;;;;;;;30.20;46.04;99203.00;10211388;29;20818;-83
2021/06/23 14:23:59;;;;;;;6.17;5.67;;;;;;;30.14;46.50;99195.81;10213580;29;20207;-83
2021/06/23 14:29:18;;;;;;;6.27;5.60;;;;;;;29.77;48.09;99201.22;10216028;29;20246;-82
2021/06/23 14:34:37;;;;;;;6.17;5.57;;;;;;;29.42;48.90;99220.25;10236952;29;20186;-82
2021/06/23 14:39:56;;;;;;;6.00;5.40;;;;;;;29.41;48.15;99218.72;10253402;29;20186;-82
2021/06/23 14:45:15;;;;;;;9.23;5.00;;;;;;;29.35;47.35;99217.94;10235843;29;20207;-83
2021/06/23 14:50:34;;;;;;;5.63;5.13;;;;;;;29.53;49.20;99203.94;10213821;29;20199;-82
2021/06/23 14:55:53;;;;;;;5.30;4.80;;;;;;;29.81;48.70;99198.09;10235351;29;20245;-83
2021/06/23 15:01:12;;;;;;;5.43;4.93;;;;;;;31.24;44.37;99203.97;10253737;28;20213;-84
2021/06/23 15:06:32;;;;;;;5.40;5.00;;;;;;;31.74;42.25;99193.44;10233019;29;20210;-85
2021/06/23 15:11:51;;;;;;;6.37;5.77;;;;;;;32.56;41.66;99180.66;10220831;29;20211;-83
2021/06/23 15:17:11;;;;;;;5.37;4.60;;;;;;;32.84;40.68;99180.94;10249950;29;20178;-81
2021/06/23 15:22:31;;;;;;;4.93;4.43;;;;;;;32.62;39.19;99164.28;10260335;29;20228;-81
2021/06/23 15:27:50;;;;;;;5.27;4.80;;;;;;;31.64;40.83;99184.53;10221679;29;20187;-80
2021/06/23 15:33:09;;;;;;;4.90;4.50;;;;;;;30.60;43.66;99179.38;10217751;29;20187;-82
2021/06/23 15:38:37;;;;;;;4.13;3.83;;;;;;;29.80;45.54;99168.22;10219741;29;20187;-82
2021/06/23 15:43:56;;;;;;;4.00;3.70;;;;;;;29.37;46.33;99159.47;10224328;29;20214;-82
2021/06/23 15:49:15;;;;;;;4.60;4.30;;;;;;;28.50;49.53;99139.97;10257632;29;20588;-82
2021/06/23 15:54:34;;;;;;;5.03;4.63;;;;;;;28.21;50.33;99136.94;10247392;29;20207;-83
2021/06/23 15:59:54;;;;;;;6.20;4.27;;;;;;;27.98;50.84;99141.06;10218238;29;20214;-83
2021/06/23 16:05:14;;;;;;;5.43;4.90;;;;;;;28.03;51.80;99135.41;10232220;29;20833;-83
2021/06/23 16:10:34;;;;;;;4.70;4.20;;;;;;;27.57;52.83;99132.31;10258471;29;20625;-82
2021/06/23 16:15:53;;;;;;;5.80;5.30;;;;;;;27.81;52.63;99129.00;10236231;28;20259;-82
2021/06/23 16:21:12;;;;;;;4.47;4.07;;;;;;;28.11;52.28;99124.34;10218326;29;20582;-82
2021/06/23 16:26:32;;;;;;;5.50;5.00;;;;;;;28.04;52.33;99127.69;10217507;29;20211;-83
2021/06/23 16:31:51;;;;;;;6.17;4.60;;;;;;;27.90;53.16;99115.38;10237458;29;20222;-83
2021/06/23 16:37:10;;;;;;;7.37;6.30;;;;;;;27.38;54.42;99107.09;10254879;29;20665;-82
2021/06/23 16:42:29;;;;;;;5.93;5.30;;;;;;;27.05;57.33;99116.28;10257015;29;20646;-80
2021/06/23 16:47:51;;;;;;;5.80;5.30;;;;;;;26.99;56.53;99123.94;10226126;29;20191;-81
2021/06/23 16:53:11;;;;;;;5.83;5.33;;;;;;;26.87;55.76;99111.06;10240104;29;20191;-81
2021/06/23 16:58:33;;;;;;;7.03;5.43;;;;;;;26.60;57.49;99099.69;10221723;29;20199;-81
2021/06/23 17:03:53;;;;;;;8.40;5.93;;;;;;;26.31;58.26;99116.94;10214433;29;20215;-81
2021/06/23 17:09:12;;;;;;;6.83;5.90;;;;;;;26.16;59.69;99110.69;10216820;29;20191;-82
2021/06/23 17:14:31;;;;;;;6.47;5.83;;;;;;;25.86;60.48;99097.41;10218009;29;20254;-82
2021/06/23 17:19:51;;;;;;;6.47;5.70;;;;;;;25.49;61.46;99112.69;10227890;29;20192;-83
2021/06/23 17:25:11;;;;;;;6.17;5.20;;;;;;;25.49;62.30;99124.75;10230501;29;20214;-82
2021/06/23 17:30:30;;;;;;;6.30;5.67;;;;;;;25.31;63.39;99127.91;10246396;29;20211;-81
2021/06/23 17:35:49;;;;;;;5.97;4.83;;;;;;;25.11;64.31;99142.03;10227526;29;20206;-82
2021/06/23 17:41:08;;;;;;;6.13;4.70;;;;;;;24.85;63.73;99136.84;10217294;29;20183;-83
2021/06/23 17:46:27;;;;;;;5.00;4.60;;;;;;;24.73;64.14;99137.94;10213973;29;20215;-82
2021/06/23 17:51:46;;;;;;;4.63;4.23;;;;;;;24.67;65.06;99149.16;10217171;29;20203;-83
2021/06/23 17:57:05;;;;;;;5.30;4.90;;;;;;;24.50;65.59;99138.94;10221330;29;20179;-82
2021/06/23 18:02:24;;;;;;;5.33;4.73;;;;;;;24.43;66.75;99136.53;10222817;29;20195;-83
2021/06/23 18:07:43;;;;;;;6.93;5.03;;;;;;;24.17;68.63;99121.56;10218353;29;20179;-83
2021/06/23 18:13:02;;;;;;;5.63;4.50;;;;;;;23.88;69.76;99126.50;10249836;29;20604;-83
2021/06/23 18:18:22;;;;;;;4.97;4.57;;;;;;;23.74;71.47;99122.47;10217507;29;20183;-82
2021/06/23 18:23:41;;;;;;;6.43;5.60;;;;;;;23.46;72.52;99120.44;10215330;29;20211;-82
2021/06/23 18:29:00;;;;;;;8.10;5.73;;;;;;;23.36;73.13;99136.56;10215685;29;20219;-81
2021/06/23 18:34:19;;;;;;;8.63;6.90;;;;;;;23.32;74.08;99142.88;10230499;28;20195;-82
2021/06/23 18:39:47;;;;;;;5.73;5.20;;;;;;;23.19;74.02;99131.94;10265732;28;20178;-82
2021/06/23 18:45:08;;;;;;;6.63;6.03;;;;;;;22.91;76.08;99129.81;10243297;28;20207;-81
2021/06/23 18:50:28;;;;;;;5.60;5.20;;;;;;;22.64;79.05;99153.25;10266391;28;20206;-82
2021/06/23 18:55:47;;;;;;;10.57;6.90;;;;;;;22.53;78.89;99163.47;10265657;28;20833;-82
2021/06/23 19:01:07;;;;;;;6.80;5.80;;;;;;;22.31;79.92;99162.19;10257798;28;20187;-81
2021/06/23 19:06:28;;;;;;;11.60;6.10;;;;;;;22.12;80.86;99155.09;10258888;28;20211;-81
2021/06/23 19:11:48;;;;;;;13.23;7.33;;;;;;;22.01;80.81;99147.22;10227285;29;20179;-82
2021/06/23 19:17:10;;;;;;;7.80;6.30;;;;;;;21.89;81.49;99142.59;10244600;28;20191;-81
2021/06/23 19:22:29;;;;;;;10.50;6.47;;;;;;;21.82;82.12;99125.38;10267977;28;20634;-82
2021/06/23 19:27:50;;;;;;;10.40;7.87;;;;;;;21.74;82.84;99119.31;10242474;28;20183;-82
2021/06/23 19:33:09;;;;;;;13.63;9.30;;;;;;;21.61;83.04;99100.41;10225120;29;20235;-81
2021/06/23 19:38:29;;;;;;;9.63;7.70;;;;;;;21.45;82.46;99121.09;10252896;28;20542;-81
2021/06/23 19:43:48;;;;;;;8.40;7.37;;;;;;;21.26;82.06;99119.59;10265770;28;20302;-81
2021/06/23 19:49:17;;;;;;;11.13;7.17;;;;;;;20.97;83.37;99113.72;10226550;29;20207;-82
2021/06/23 19:54:39;;;;;;;9.03;6.60;;;;;;;20.87;85.09;99108.63;10222951;29;20183;-81
2021/06/23 19:59:58;;;;;;;10.57;7.53;;;;;;;20.74;86.82;99107.19;10221058;29;20183;-81
2021/06/23 20:05:20;;;;;;;12.00;6.67;;;;;;;20.59;91.24;99107.06;10225301;29;20294;-81
2021/06/23 20:10:39;;;;;;;11.67;8.03;;;;;;;20.49;93.55;99115.88;10268495;29;20179;-81
2021/06/23 20:15:58;;;;;;;11.33;8.20;;;;;;;20.43;95.09;99138.09;10263480;29;20191;-82
2021/06/23 20:21:20;;;;;;;11.30;8.80;;;;;;;20.30;97.89;99151.41;10230035;29;20179;-81
2021/06/23 20:26:39;;;;;;;13.57;8.53;;;;;;;20.38;96.78;99149.88;10236414;29;20689;-81
2021/06/23 20:32:02;;;;;;;13.50;8.90;;;;;;;20.26;100.00;99141.63;10262922;29;20282;-82
2021/06/23 20:37:22;;;;;;;11.23;7.33;;;;;;;20.18;100.00;99155.13;10246418;29;20196;-82
2021/06/23 20:42:46;;;;;;;14.77;7.90;;;;;;;20.14;100.00;99153.72;10234627;29;20195;-82
2021/06/23 20:48:06;;;;;;;11.97;8.43;;;;;;;19.99;100.00;99163.88;10267470;29;20245;-81
2021/06/23 20:53:25;;;;;;;12.03;8.20;;;;;;;19.88;100.00;99157.94;10278343;29;20179;-82
2021/06/23 20:58:45;;;;;;;14.70;8.37;;;;;;;19.80;100.00;99173.41;10269937;28;20183;-81
2021/06/23 21:04:06;;;;;;;13.87;9.00;;;;;;;19.74;100.00;99185.63;10251098;29;20215;-82
2021/06/23 21:09:27;;;;;;;14.77;9.33;;;;;;;19.70;100.00;99182.19;10229706;29;20535;-82
2021/06/23 21:14:46;;;;;;;13.90;7.60;;;;;;;19.66;100.00;99184.34;10239901;29;20648;-83
2021/06/23 21:20:05;;;;;;;14.73;8.13;;;;;;;19.55;100.00;99195.91;10270992;29;20178;-82
2021/06/23 21:25:24;;;;;;;11.83;7.80;;;;;;;19.55;100.00;99209.06;10265326;29;20261;-82
2021/06/23 21:30:48;;;;;;;12.67;7.53;;;;;;;19.48;100.00;99196.19;10235980;29;20223;-81
2021/06/23 21:36:13;;;;;;;11.23;7.07;;;;;;;19.25;100.00;99204.22;10257730;29;20183;-81
2021/06/23 21:41:43;;;;;;;9.00;6.97;;;;;;;19.15;100.00;99210.97;10275557;29;20637;-82
2021/06/23 21:47:04;;;;;;;8.70;6.63;;;;;;;19.11;100.00;99206.75;10258815;29;20238;-81
2021/06/23 21:52:24;;;;;;;11.17;7.00;;;;;;;19.05;100.00;99209.34;10242635;29;20191;-81
2021/06/23 21:57:44;;;;;;;12.50;7.77;;;;;;;18.98;100.00;99217.91;10270623;29;20183;-81
2021/06/23 22:03:15;;;;;;;9.97;6.80;;;;;;;18.84;100.00;99212.09;10277235;29;20206;-82
2021/06/23 22:08:49;;;;;;;9.57;6.83;;;;;;;18.67;100.00;99213.47;10239741;29;20187;-82
2021/06/23 22:14:10;;;;;;;7.77;6.60;;;;;;;18.64;100.00;99214.34;10225589;29;20171;-82
2021/06/23 22:19:29;;;;;;;6.90;6.20;;;;;;;18.60;100.00;99208.91;10227719;29;20187;-82
2021/06/23 22:24:50;;;;;;;6.77;6.07;;;;;;;18.49;100.00;99219.66;10253324;29;20214;-81
2021/06/23 22:30:10;;;;;;;9.20;7.20;;;;;;;18.41;100.00;99212.72;10264646;29;20222;-83
2021/06/23 22:35:31;;;;;;;11.73;7.70;;;;;;;18.42;100.00;99224.66;10230752;29;20577;-81
2021/06/23 22:41:03;;;;;;;8.90;6.20;;;;;;;18.49;100.00;99216.84;10220773;29;20175;-81
2021/06/23 22:52:07;;;;;;;7.00;6.10;;;;;;;18.43;100.00;99223.44;10253702;29;20191;-80
2021/06/23 22:57:30;;;;;;;10.80;6.40;;;;;;;18.38;100.00;99234.34;10217366;29;20643;-81
2021/06/23 23:02:51;;;;;;;9.53;6.90;;;;;;;18.39;100.00;99244.28;10225382;29;20206;-81
2021/06/23 23:08:10;;;;;;;13.60;8.40;;;;;;;18.39;100.00;99244.28;10258008;29;20186;-84
2021/06/23 23:13:30;;;;;;;13.23;6.97;;;;;;;18.34;100.00;99233.69;10242659;29;20234;-81
2021/06/23 23:18:51;;;;;;;7.43;6.30;;;;;;;18.40;100.00;99231.91;10215084;29;20180;-82
2021/06/23 23:24:13;;;;;;;9.00;6.73;;;;;;;18.25;100.00;99237.16;10239074;29;20606;-84
2021/06/23 23:29:32;;;;;;;8.57;6.00;;;;;;;18.21;100.00;99228.16;10264313;29;20305;-83
2021/06/23 23:34:51;;;;;;;10.33;6.60;;;;;;;18.10;100.00;99236.03;10238229;29;20187;-85
2021/06/23 23:40:12;;;;;;;11.30;6.63;;;;;;;18.02;100.00;99225.53;10224457;29;20175;-81
2021/06/23 23:45:35;;;;;;;8.00;5.80;;;;;;;17.99;100.00;99238.34;10236072;29;20655;-82
2021/06/23 23:50:54;;;;;;;8.23;6.73;;;;;;;17.93;100.00;99229.00;10232361;29;20191;-83
2021/06/23 23:56:13;;;;;;;9.70;5.57;;;;;;;17.88;100.00;99242.69;10264728;29;20186;-81
